KMMI

McMinn County Airport

Athens, Tennessee, USA
METAR KMMI 110215Z AUTO 00000KT 10SM CLR 01/01 A3023 RMK A01
Observed Flight Rules
Dec-11 @ 02:15 UTC (38 minutes ago) Visual Flight Rules
Visibility Clouds
10 miles
  • Clear skies
Temperatures Readings
Current 1°C / 34°F
Dewpoint 1°C / 34°F
Humidity 100%
Altimeter 30.23" Hg
Pressure 1024 hPa
Elevation 266
METAR KMMI 110215Z AUTO 00000KT 10SM CLR 01/01 A3023 RMK A01
Observed Flight Rules
Dec-11 @ 02:15 UTC
(38 minutes ago)
VFR
Clouds
  • Clear skies
Temperature Dewpoint
1°C / 34°F 1°C / 34°F
Humidity Altimeter Pressure
100% 30.23" Hg 1024 hPa